sensor_id;sensor_type;location;lat;lon;timestamp;pressure;altitude;pressure_sealevel;temperature;humidity
9415;BME280;4746;35.664;139.738;2023-04-27T00:00:02;100573.72;;;19.99;31.07
9415;BME280;4746;35.664;139.738;2023-04-27T00:02:32;100562.44;;;20.00;30.47
9415;BME280;4746;35.664;139.738;2023-04-27T00:04:59;100562.38;;;20.03;30.90
9415;BME280;4746;35.664;139.738;2023-04-27T00:07:28;100571.75;;;20.08;30.78
9415;BME280;4746;35.664;139.738;2023-04-27T00:09:55;100585.47;;;20.15;31.04
9415;BME280;4746;35.664;139.738;2023-04-27T00:12:23;100598.22;;;20.23;30.84
9415;BME280;4746;35.664;139.738;2023-04-27T00:14:51;100585.06;;;20.29;30.92
9415;BME280;4746;35.664;139.738;2023-04-27T00:17:18;100603.06;;;20.37;30.84
9415;BME280;4746;35.664;139.738;2023-04-27T00:19:46;100602.06;;;20.42;30.58
9415;BME280;4746;35.664;139.738;2023-04-27T00:22:15;100590.75;;;20.43;30.79
9415;BME280;4746;35.664;139.738;2023-04-27T00:24:43;100599.41;;;20.44;31.06
9415;BME280;4746;35.664;139.738;2023-04-27T00:27:10;100567.88;;;20.54;31.36
9415;BME280;4746;35.664;139.738;2023-04-27T00:29:40;100595.31;;;20.67;31.34
9415;BME280;4746;35.664;139.738;2023-04-27T00:32:11;100612.53;;;20.71;30.67
9415;BME280;4746;35.664;139.738;2023-04-27T00:34:38;100613.38;;;20.73;30.48
9415;BME280;4746;35.664;139.738;2023-04-27T00:37:06;100605.50;;;20.76;30.76
9415;BME280;4746;35.664;139.738;2023-04-27T00:39:34;100614.75;;;20.86;30.29
9415;BME280;4746;35.664;139.738;2023-04-27T00:42:02;100616.28;;;20.93;30.16
9415;BME280;4746;35.664;139.738;2023-04-27T00:44:29;100600.47;;;21.00;30.57
9415;BME280;4746;35.664;139.738;2023-04-27T00:46:58;100618.53;;;21.05;30.68
9415;BME280;4746;35.664;139.738;2023-04-27T00:49:26;100613.16;;;21.11;30.64
9415;BME280;4746;35.664;139.738;2023-04-27T00:51:55;100599.88;;;21.20;30.69
9415;BME280;4746;35.664;139.738;2023-04-27T00:54:23;100625.66;;;21.29;30.45
9415;BME280;4746;35.664;139.738;2023-04-27T00:56:52;100620.34;;;21.32;30.27
9415;BME280;4746;35.664;139.738;2023-04-27T00:59:20;100628.97;;;21.34;30.46
9415;BME280;4746;35.664;139.738;2023-04-27T01:01:49;100632.22;;;21.42;30.18
9415;BME280;4746;35.664;139.738;2023-04-27T01:04:16;100627.63;;;21.50;29.86
9415;BME280;4746;35.664;139.738;2023-04-27T01:06:44;100623.91;;;21.58;29.10
9415;BME280;4746;35.664;139.738;2023-04-27T01:09:12;100625.41;;;21.65;29.00
9415;BME280;4746;35.664;139.738;2023-04-27T01:11:40;100616.66;;;21.67;29.25
9415;BME280;4746;35.664;139.738;2023-04-27T01:14:07;100608.53;;;21.76;29.25
9415;BME280;4746;35.664;139.738;2023-04-27T01:16:35;100634.22;;;21.88;29.26
9415;BME280;4746;35.664;139.738;2023-04-27T01:19:03;100619.34;;;21.92;28.69
9415;BME280;4746;35.664;139.738;2023-04-27T01:21:31;100624.28;;;21.99;28.94
9415;BME280;4746;35.664;139.738;2023-04-27T01:23:58;100626.81;;;22.02;28.82
9415;BME280;4746;35.664;139.738;2023-04-27T01:26:26;100640.47;;;22.10;28.64
9415;BME280;4746;35.664;139.738;2023-04-27T01:28:53;100634.19;;;22.16;28.57
9415;BME280;4746;35.664;139.738;2023-04-27T01:31:21;100642.56;;;22.25;28.49
9415;BME280;4746;35.664;139.738;2023-04-27T01:33:48;100639.75;;;22.33;28.32
9415;BME280;4746;35.664;139.738;2023-04-27T01:36:16;100643.03;;;22.38;28.33
9415;BME280;4746;35.664;139.738;2023-04-27T01:38:44;100646.34;;;22.42;28.25
9415;BME280;4746;35.664;139.738;2023-04-27T01:41:11;100651.44;;;22.47;28.31
9415;BME280;4746;35.664;139.738;2023-04-27T01:43:39;100648.53;;;22.54;28.38
9415;BME280;4746;35.664;139.738;2023-04-27T01:46:13;100641.25;;;22.64;28.44
9415;BME280;4746;35.664;139.738;2023-04-27T01:48:42;100645.63;;;22.63;27.80
9415;BME280;4746;35.664;139.738;2023-04-27T01:51:10;100642.94;;;22.65;27.80
9415;BME280;4746;35.664;139.738;2023-04-27T01:53:37;100650.63;;;22.69;27.81
9415;BME280;4746;35.664;139.738;2023-04-27T01:56:05;100640.00;;;22.74;27.48
9415;BME280;4746;35.664;139.738;2023-04-27T01:58:33;100648.06;;;22.68;27.08
9415;BME280;4746;35.664;139.738;2023-04-27T02:01:00;100641.94;;;22.69;27.49
9415;BME280;4746;35.664;139.738;2023-04-27T02:03:27;100640.13;;;22.71;27.34
9415;BME280;4746;35.664;139.738;2023-04-27T02:05:55;100646.84;;;22.78;27.20
9415;BME280;4746;35.664;139.738;2023-04-27T02:08:23;100636.00;;;22.88;27.28
9415;BME280;4746;35.664;139.738;2023-04-27T02:10:50;100641.94;;;22.93;27.08
9415;BME280;4746;35.664;139.738;2023-04-27T02:13:18;100630.38;;;22.99;26.86
9415;BME280;4746;35.664;139.738;2023-04-27T02:15:45;100637.94;;;23.08;26.65
9415;BME280;4746;35.664;139.738;2023-04-27T02:18:13;100644.63;;;23.14;26.87
9415;BME280;4746;35.664;139.738;2023-04-27T02:20:41;100640.19;;;23.16;26.20
9415;BME280;4746;35.664;139.738;2023-04-27T02:23:09;100635.72;;;23.20;26.79
9415;BME280;4746;35.664;139.738;2023-04-27T02:25:37;100633.53;;;23.31;26.64
9415;BME280;4746;35.664;139.738;2023-04-27T02:28:08;100637.63;;;23.38;26.41
9415;BME280;4746;35.664;139.738;2023-04-27T02:30:37;100634.03;;;23.40;26.45
9415;BME280;4746;35.664;139.738;2023-04-27T02:33:04;100626.88;;;23.45;26.47
9415;BME280;4746;35.664;139.738;2023-04-27T02:35:32;100631.38;;;23.63;26.48
9415;BME280;4746;35.664;139.738;2023-04-27T02:37:59;100640.31;;;23.81;26.18
9415;BME280;4746;35.664;139.738;2023-04-27T02:40:27;100627.69;;;23.90;26.10
9415;BME280;4746;35.664;139.738;2023-04-27T02:42:54;100634.03;;;24.06;25.87
9415;BME280;4746;35.664;139.738;2023-04-27T02:45:22;100640.25;;;24.23;25.45
9415;BME280;4746;35.664;139.738;2023-04-27T02:47:50;100632.88;;;24.33;24.70
9415;BME280;4746;35.664;139.738;2023-04-27T02:50:17;100648.34;;;24.39;24.48
9415;BME280;4746;35.664;139.738;2023-04-27T02:52:45;100636.56;;;24.49;24.27
9415;BME280;4746;35.664;139.738;2023-04-27T02:55:12;100637.75;;;24.61;24.17
9415;BME280;4746;35.664;139.738;2023-04-27T02:57:40;100646.72;;;24.76;23.77
9415;BME280;4746;35.664;139.738;2023-04-27T03:00:08;100637.84;;;24.80;23.63
9415;BME280;4746;35.664;139.738;2023-04-27T03:02:36;100637.34;;;24.90;23.97
9415;BME280;4746;35.664;139.738;2023-04-27T03:05:04;100640.75;;;25.12;23.36
9415;BME280;4746;35.664;139.738;2023-04-27T03:07:32;100633.97;;;25.26;23.35
9415;BME280;4746;35.664;139.738;2023-04-27T03:10:00;100632.25;;;25.44;23.66
9415;BME280;4746;35.664;139.738;2023-04-27T03:12:27;100631.25;;;25.46;23.29
9415;BME280;4746;35.664;139.738;2023-04-27T03:14:55;100638.09;;;25.50;22.71
9415;BME280;4746;35.664;139.738;2023-04-27T03:17:22;100633.38;;;25.57;22.29
9415;BME280;4746;35.664;139.738;2023-04-27T03:19:50;100630.59;;;25.60;22.35
9415;BME280;4746;35.664;139.738;2023-04-27T03:22:18;100631.94;;;25.68;21.75
9415;BME280;4746;35.664;139.738;2023-04-27T03:24:45;100642.88;;;25.78;22.11
9415;BME280;4746;35.664;139.738;2023-04-27T03:27:13;100631.75;;;25.91;22.05
9415;BME280;4746;35.664;139.738;2023-04-27T03:29:41;100621.25;;;26.08;21.69
9415;BME280;4746;35.664;139.738;2023-04-27T03:32:09;100636.63;;;26.32;21.28
9415;BME280;4746;35.664;139.738;2023-04-27T03:34:36;100630.97;;;26.58;21.71
9415;BME280;4746;35.664;139.738;2023-04-27T03:37:04;100628.13;;;26.78;21.29
9415;BME280;4746;35.664;139.738;2023-04-27T03:39:32;100629.78;;;26.96;21.09
9415;BME280;4746;35.664;139.738;2023-04-27T03:41:59;100636.75;;;27.14;21.10
9415;BME280;4746;35.664;139.738;2023-04-27T03:44:28;100635.16;;;27.27;20.93
9415;BME280;4746;35.664;139.738;2023-04-27T03:46:57;100645.78;;;27.40;20.43
9415;BME280;4746;35.664;139.738;2023-04-27T03:49:25;100647.38;;;27.58;20.34
9415;BME280;4746;35.664;139.738;2023-04-27T03:51:52;100649.66;;;27.81;20.50
9415;BME280;4746;35.664;139.738;2023-04-27T03:54:20;100646.81;;;28.00;21.30
9415;BME280;4746;35.664;139.738;2023-04-27T03:56:48;100641.09;;;28.07;21.19
9415;BME280;4746;35.664;139.738;2023-04-27T03:59:15;100641.63;;;28.13;21.76
9415;BME280;4746;35.664;139.738;2023-04-27T04:01:43;100641.00;;;28.24;21.58
9415;BME280;4746;35.664;139.738;2023-04-27T04:04:10;100646.84;;;28.29;21.79
9415;BME280;4746;35.664;139.738;2023-04-27T04:06:38;100647.47;;;28.34;21.72
9415;BME280;4746;35.664;139.738;2023-04-27T04:09:05;100643.25;;;28.45;21.87
9415;BME280;4746;35.664;139.738;2023-04-27T04:11:33;100656.06;;;28.51;21.61
9415;BME280;4746;35.664;139.738;2023-04-27T04:14:00;100666.56;;;28.67;20.98
9415;BME280;4746;35.664;139.738;2023-04-27T04:16:28;100669.00;;;28.70;21.25
9415;BME280;4746;35.664;139.738;2023-04-27T04:18:55;100667.75;;;28.90;21.26
9415;BME280;4746;35.664;139.738;2023-04-27T04:21:22;100664.75;;;29.10;20.71
9415;BME280;4746;35.664;139.738;2023-04-27T04:23:50;100672.16;;;29.33;20.92
9415;BME280;4746;35.664;139.738;2023-04-27T04:26:17;100664.56;;;29.55;20.83
9415;BME280;4746;35.664;139.738;2023-04-27T04:28:46;100670.47;;;29.72;20.55
9415;BME280;4746;35.664;139.738;2023-04-27T04:31:14;100665.16;;;29.86;20.08
9415;BME280;4746;35.664;139.738;2023-04-27T04:33:43;100657.13;;;30.02;20.69
9415;BME280;4746;35.664;139.738;2023-04-27T04:36:11;100656.03;;;30.18;19.71
9415;BME280;4746;35.664;139.738;2023-04-27T04:38:39;100658.88;;;30.27;19.81
9415;BME280;4746;35.664;139.738;2023-04-27T04:41:06;100654.88;;;30.34;20.26
9415;BME280;4746;35.664;139.738;2023-04-27T04:43:33;100662.78;;;30.48;19.98
9415;BME280;4746;35.664;139.738;2023-04-27T04:46:01;100653.50;;;30.68;19.71
9415;BME280;4746;35.664;139.738;2023-04-27T04:48:29;100655.94;;;30.83;19.63
9415;BME280;4746;35.664;139.738;2023-04-27T04:50:56;100655.28;;;30.92;19.32
9415;BME280;4746;35.664;139.738;2023-04-27T04:53:23;100646.00;;;30.99;19.19
9415;BME280;4746;35.664;139.738;2023-04-27T04:55:51;100653.63;;;31.16;19.75
9415;BME280;4746;35.664;139.738;2023-04-27T04:58:19;100653.91;;;31.36;19.66
9415;BME280;4746;35.664;139.738;2023-04-27T05:00:47;100655.16;;;31.56;19.84
9415;BME280;4746;35.664;139.738;2023-04-27T05:03:14;100653.84;;;31.73;19.68
9415;BME280;4746;35.664;139.738;2023-04-27T05:05:42;100658.16;;;31.87;19.78
9415;BME280;4746;35.664;139.738;2023-04-27T05:08:09;100650.47;;;32.07;19.51
9415;BME280;4746;35.664;139.738;2023-04-27T05:10:37;100642.25;;;32.10;19.42
9415;BME280;4746;35.664;139.738;2023-04-27T05:13:04;100638.88;;;32.08;19.72
9415;BME280;4746;35.664;139.738;2023-04-27T05:15:32;100644.50;;;32.27;19.70
9415;BME280;4746;35.664;139.738;2023-04-27T05:17:59;100637.34;;;32.51;19.44
9415;BME280;4746;35.664;139.738;2023-04-27T05:20:27;100631.88;;;32.76;19.29
9415;BME280;4746;35.664;139.738;2023-04-27T05:22:54;100630.25;;;33.08;18.97
9415;BME280;4746;35.664;139.738;2023-04-27T05:25:22;100625.50;;;33.66;18.75
9415;BME280;4746;35.664;139.738;2023-04-27T05:27:49;100637.78;;;33.88;18.84
9415;BME280;4746;35.664;139.738;2023-04-27T05:30:16;100640.16;;;34.02;18.73
9415;BME280;4746;35.664;139.738;2023-04-27T05:32:44;100633.44;;;34.30;18.47
9415;BME280;4746;35.664;139.738;2023-04-27T05:35:11;100626.16;;;34.72;17.70
9415;BME280;4746;35.664;139.738;2023-04-27T05:37:39;100641.44;;;34.91;17.38
9415;BME280;4746;35.664;139.738;2023-04-27T05:40:07;100630.44;;;34.84;17.93
9415;BME280;4746;35.664;139.738;2023-04-27T05:42:36;100623.31;;;35.05;17.65
9415;BME280;4746;35.664;139.738;2023-04-27T05:45:04;100618.22;;;35.32;17.66
9415;BME280;4746;35.664;139.738;2023-04-27T05:47:31;100620.06;;;35.41;18.18
9415;BME280;4746;35.664;139.738;2023-04-27T05:49:59;100618.75;;;35.26;18.27
9415;BME280;4746;35.664;139.738;2023-04-27T05:52:26;100624.41;;;35.03;17.89
9415;BME280;4746;35.664;139.738;2023-04-27T05:54:57;100625.00;;;35.16;18.13
9415;BME280;4746;35.664;139.738;2023-04-27T05:57:25;100625.53;;;36.73;16.81
9415;BME280;4746;35.664;139.738;2023-04-27T05:59:53;100624.09;;;38.82;15.09
9415;BME280;4746;35.664;139.738;2023-04-27T06:02:21;100626.53;;;40.48;13.92
9415;BME280;4746;35.664;139.738;2023-04-27T06:04:48;100636.53;;;41.95;13.25
9415;BME280;4746;35.664;139.738;2023-04-27T06:07:16;100625.03;;;42.60;12.26
9415;BME280;4746;35.664;139.738;2023-04-27T06:09:44;100621.59;;;43.31;12.52
9415;BME280;4746;35.664;139.738;2023-04-27T06:12:11;100638.19;;;44.13;11.60
9415;BME280;4746;35.664;139.738;2023-04-27T06:14:38;100647.31;;;43.91;11.47
9415;BME280;4746;35.664;139.738;2023-04-27T06:17:06;100637.97;;;43.58;11.60
9415;BME280;4746;35.664;139.738;2023-04-27T06:19:33;100646.72;;;43.60;11.66
9415;BME280;4746;35.664;139.738;2023-04-27T06:22:01;100659.31;;;43.53;11.22
9415;BME280;4746;35.664;139.738;2023-04-27T06:24:29;100658.41;;;43.18;11.31
9415;BME280;4746;35.664;139.738;2023-04-27T06:26:57;100683.03;;;41.89;11.94
9415;BME280;4746;35.664;139.738;2023-04-27T06:29:25;100666.75;;;41.28;12.58
9415;BME280;4746;35.664;139.738;2023-04-27T06:31:52;100659.19;;;42.00;12.33
9415;BME280;4746;35.664;139.738;2023-04-27T06:34:20;100669.19;;;42.44;12.23
9415;BME280;4746;35.664;139.738;2023-04-27T06:36:47;100668.94;;;42.76;11.96
9415;BME280;4746;35.664;139.738;2023-04-27T06:39:15;100683.63;;;42.73;12.33
9415;BME280;4746;35.664;139.738;2023-04-27T06:41:42;100686.16;;;42.00;11.99
9415;BME280;4746;35.664;139.738;2023-04-27T06:44:10;100680.16;;;41.52;12.60
9415;BME280;4746;35.664;139.738;2023-04-27T06:46:37;100682.44;;;42.01;12.98
9415;BME280;4746;35.664;139.738;2023-04-27T06:49:05;100685.06;;;42.39;12.81
9415;BME280;4746;35.664;139.738;2023-04-27T06:51:32;100676.53;;;43.09;12.22
9415;BME280;4746;35.664;139.738;2023-04-27T06:54:00;100665.97;;;43.72;11.92
9415;BME280;4746;35.664;139.738;2023-04-27T06:56:27;100668.75;;;43.78;12.26
9415;BME280;4746;35.664;139.738;2023-04-27T06:58:55;100685.31;;;44.04;12.12
9415;BME280;4746;35.664;139.738;2023-04-27T07:01:22;100683.41;;;44.61;11.70
9415;BME280;4746;35.664;139.738;2023-04-27T07:03:50;100713.00;;;45.10;11.60
9415;BME280;4746;35.664;139.738;2023-04-27T07:06:18;100693.31;;;44.54;11.81
9415;BME280;4746;35.664;139.738;2023-04-27T07:08:45;100692.06;;;44.71;11.17
9415;BME280;4746;35.664;139.738;2023-04-27T07:11:13;100685.69;;;44.85;10.94
9415;BME280;4746;35.664;139.738;2023-04-27T07:13:42;100693.72;;;45.26;10.91
9415;BME280;4746;35.664;139.738;2023-04-27T07:16:09;100693.25;;;45.44;11.00
9415;BME280;4746;35.664;139.738;2023-04-27T07:18:37;100711.19;;;45.51;10.88
9415;BME280;4746;35.664;139.738;2023-04-27T07:21:04;100712.28;;;45.63;10.68
9415;BME280;4746;35.664;139.738;2023-04-27T07:23:32;100687.13;;;45.75;10.61
9415;BME280;4746;35.664;139.738;2023-04-27T07:26:00;100716.28;;;46.14;10.52
9415;BME280;4746;35.664;139.738;2023-04-27T07:28:29;100731.31;;;46.10;10.20
9415;BME280;4746;35.664;139.738;2023-04-27T07:30:57;100741.66;;;44.98;10.94
9415;BME280;4746;35.664;139.738;2023-04-27T07:33:25;100738.09;;;44.00;11.52
9415;BME280;4746;35.664;139.738;2023-04-27T07:35:52;100716.06;;;44.03;11.22
9415;BME280;4746;35.664;139.738;2023-04-27T07:38:20;100737.44;;;43.98;11.48
9415;BME280;4746;35.664;139.738;2023-04-27T07:40:48;100732.03;;;43.98;11.33
9415;BME280;4746;35.664;139.738;2023-04-27T07:43:15;100752.47;;;43.57;11.90
9415;BME280;4746;35.664;139.738;2023-04-27T07:45:44;100733.69;;;43.13;11.88
9415;BME280;4746;35.664;139.738;2023-04-27T07:48:11;100725.22;;;43.16;12.34
9415;BME280;4746;35.664;139.738;2023-04-27T07:50:39;100757.88;;;43.57;12.01
9415;BME280;4746;35.664;139.738;2023-04-27T07:53:07;100749.91;;;43.42;11.76
9415;BME280;4746;35.664;139.738;2023-04-27T07:55:34;100765.38;;;43.33;12.47
9415;BME280;4746;35.664;139.738;2023-04-27T07:58:02;100782.47;;;42.89;12.41
9415;BME280;4746;35.664;139.738;2023-04-27T08:00:30;100771.25;;;41.95;12.69
9415;BME280;4746;35.664;139.738;2023-04-27T08:02:58;100800.50;;;41.27;13.41
9415;BME280;4746;35.664;139.738;2023-04-27T08:05:25;100790.97;;;40.36;14.09
9415;BME280;4746;35.664;139.738;2023-04-27T08:07:53;100776.28;;;39.48;15.08
9415;BME280;4746;35.664;139.738;2023-04-27T08:10:21;100769.84;;;39.16;15.47
9415;BME280;4746;35.664;139.738;2023-04-27T08:12:49;100783.94;;;39.18;15.54
9415;BME280;4746;35.664;139.738;2023-04-27T08:15:17;100789.78;;;39.13;16.02
9415;BME280;4746;35.664;139.738;2023-04-27T08:17:45;100784.97;;;38.65;15.41
9415;BME280;4746;35.664;139.738;2023-04-27T08:20:15;100797.31;;;38.31;16.55
9415;BME280;4746;35.664;139.738;2023-04-27T08:22:43;100795.94;;;38.27;16.23
9415;BME280;4746;35.664;139.738;2023-04-27T08:25:11;100791.66;;;38.07;16.59
9415;BME280;4746;35.664;139.738;2023-04-27T08:27:39;100803.94;;;38.00;16.35
9415;BME280;4746;35.664;139.738;2023-04-27T08:30:07;100821.06;;;37.16;17.33
9415;BME280;4746;35.664;139.738;2023-04-27T08:32:35;100802.59;;;36.08;18.03
9415;BME280;4746;35.664;139.738;2023-04-27T08:35:03;100822.09;;;35.69;18.62
9415;BME280;4746;35.664;139.738;2023-04-27T08:37:31;100812.25;;;34.77;19.66
9415;BME280;4746;35.664;139.738;2023-04-27T08:39:58;100820.84;;;33.84;20.34
9415;BME280;4746;35.664;139.738;2023-04-27T08:42:26;100849.97;;;33.63;20.41
9415;BME280;4746;35.664;139.738;2023-04-27T08:44:54;100840.22;;;33.29;21.47
9415;BME280;4746;35.664;139.738;2023-04-27T08:47:21;100839.09;;;32.98;21.77
9415;BME280;4746;35.664;139.738;2023-04-27T08:49:49;100855.19;;;32.37;22.42
9415;BME280;4746;35.664;139.738;2023-04-27T08:52:17;100851.25;;;31.31;24.00
9415;BME280;4746;35.664;139.738;2023-04-27T08:54:44;100879.06;;;30.31;24.63
9415;BME280;4746;35.664;139.738;2023-04-27T08:57:14;100895.38;;;29.09;26.33
9415;BME280;4746;35.664;139.738;2023-04-27T08:59:43;100875.34;;;28.13;27.86
9415;BME280;4746;35.664;139.738;2023-04-27T09:02:20;100874.28;;;27.68;28.16
9415;BME280;4746;35.664;139.738;2023-04-27T09:04:48;100866.00;;;27.08;29.25
9415;BME280;4746;35.664;139.738;2023-04-27T09:07:18;100872.47;;;26.66;29.67
9415;BME280;4746;35.664;139.738;2023-04-27T09:09:46;100855.88;;;26.28;30.32
9415;BME280;4746;35.664;139.738;2023-04-27T09:12:20;100860.94;;;25.94;31.14
9415;BME280;4746;35.664;139.738;2023-04-27T09:14:59;100883.94;;;25.70;31.20
9415;BME280;4746;35.664;139.738;2023-04-27T09:17:28;100862.75;;;25.34;32.16
9415;BME280;4746;35.664;139.738;2023-04-27T09:20:07;100853.25;;;25.12;32.54
9415;BME280;4746;35.664;139.738;2023-04-27T09:22:50;100902.19;;;24.90;33.08
9415;BME280;4746;35.664;139.738;2023-04-27T09:25:25;100903.53;;;24.57;33.89
9415;BME280;4746;35.664;139.738;2023-04-27T09:27:55;100899.38;;;24.29;34.51
9415;BME280;4746;35.664;139.738;2023-04-27T09:30:24;100875.63;;;24.11;35.56
9415;BME280;4746;35.664;139.738;2023-04-27T09:32:57;100870.84;;;23.99;35.87
9415;BME280;4746;35.664;139.738;2023-04-27T09:35:29;100876.53;;;23.87;36.11
9415;BME280;4746;35.664;139.738;2023-04-27T09:37:58;100890.88;;;23.77;36.28
9415;BME280;4746;35.664;139.738;2023-04-27T09:40:28;100872.81;;;23.68;36.67
9415;BME280;4746;35.664;139.738;2023-04-27T09:42:59;100876.53;;;23.63;37.24
9415;BME280;4746;35.664;139.738;2023-04-27T09:45:32;100894.09;;;23.59;37.48
9415;BME280;4746;35.664;139.738;2023-04-27T09:48:01;100871.06;;;23.44;37.86
9415;BME280;4746;35.664;139.738;2023-04-27T09:50:37;100889.78;;;23.34;37.88
9415;BME280;4746;35.664;139.738;2023-04-27T09:53:14;100890.06;;;23.25;38.08
9415;BME280;4746;35.664;139.738;2023-04-27T09:56:10;100889.50;;;23.15;37.90
9415;BME280;4746;35.664;139.738;2023-04-27T09:59:50;100907.31;;;23.05;37.72
9415;BME280;4746;35.664;139.738;2023-04-27T10:02:23;100905.13;;;22.91;38.39
9415;BME280;4746;35.664;139.738;2023-04-27T10:05:06;100914.94;;;22.83;39.01
9415;BME280;4746;35.664;139.738;2023-04-27T10:07:39;100909.97;;;22.76;39.24
9415;BME280;4746;35.664;139.738;2023-04-27T10:10:16;100946.66;;;22.73;38.74
9415;BME280;4746;35.664;139.738;2023-04-27T10:13:06;100920.44;;;22.76;38.58
9415;BME280;4746;35.664;139.738;2023-04-27T10:15:39;100931.06;;;22.70;38.67
9415;BME280;4746;35.664;139.738;2023-04-27T10:18:07;100944.44;;;22.61;39.52
9415;BME280;4746;35.664;139.738;2023-04-27T10:20:36;100962.72;;;22.59;39.62
9415;BME280;4746;35.664;139.738;2023-04-27T10:23:04;100935.91;;;22.54;39.21
9415;BME280;4746;35.664;139.738;2023-04-27T10:25:40;100946.28;;;22.57;39.34
9415;BME280;4746;35.664;139.738;2023-04-27T10:28:15;100928.13;;;22.53;39.59
9415;BME280;4746;35.664;139.738;2023-04-27T10:30:48;100937.03;;;22.46;40.29
9415;BME280;4746;35.664;139.738;2023-04-27T10:33:21;100930.97;;;22.45;39.77
9415;BME280;4746;35.664;139.738;2023-04-27T10:35:57;100940.59;;;22.43;40.17
9415;BME280;4746;35.664;139.738;2023-04-27T10:38:30;100954.59;;;22.41;40.00
9415;BME280;4746;35.664;139.738;2023-04-27T10:41:01;100950.31;;;22.38;40.18
9415;BME280;4746;35.664;139.738;2023-04-27T10:43:34;100978.22;;;22.37;40.54
9415;BME280;4746;35.664;139.738;2023-04-27T10:46:13;100961.72;;;22.36;40.36
9415;BME280;4746;35.664;139.738;2023-04-27T10:48:43;100975.84;;;22.29;40.78
9415;BME280;4746;35.664;139.738;2023-04-27T10:51:15;100967.13;;;22.30;40.81
9415;BME280;4746;35.664;139.738;2023-04-27T10:54:02;100967.06;;;22.32;41.02
9415;BME280;4746;35.664;139.738;2023-04-27T10:56:40;100967.31;;;22.21;41.06
9415;BME280;4746;35.664;139.738;2023-04-27T10:59:09;100988.47;;;22.12;41.73
9415;BME280;4746;35.664;139.738;2023-04-27T11:01:47;100990.91;;;22.18;41.43
9415;BME280;4746;35.664;139.738;2023-04-27T11:04:19;100983.38;;;22.08;41.29
9415;BME280;4746;35.664;139.738;2023-04-27T11:06:46;100986.69;;;22.14;41.80
9415;BME280;4746;35.664;139.738;2023-04-27T11:09:25;100987.31;;;22.22;41.49
9415;BME280;4746;35.664;139.738;2023-04-27T11:11:53;100985.66;;;22.20;41.58
9415;BME280;4746;35.664;139.738;2023-04-27T11:14:20;101014.38;;;22.20;41.56
9415;BME280;4746;35.664;139.738;2023-04-27T11:16:48;101015.19;;;22.22;41.63
9415;BME280;4746;35.664;139.738;2023-04-27T11:19:20;101000.38;;;22.22;41.84
9415;BME280;4746;35.664;139.738;2023-04-27T11:21:48;100963.94;;;22.18;41.75
9415;BME280;4746;35.664;139.738;2023-04-27T11:24:15;100970.94;;;22.17;42.04
9415;BME280;4746;35.664;139.738;2023-04-27T11:26:50;100977.94;;;22.15;42.01
9415;BME280;4746;35.664;139.738;2023-04-27T11:29:19;100987.69;;;22.09;42.17
9415;BME280;4746;35.664;139.738;2023-04-27T11:31:49;101001.38;;;22.18;42.65
9415;BME280;4746;35.664;139.738;2023-04-27T11:34:23;100993.44;;;22.21;42.24
9415;BME280;4746;35.664;139.738;2023-04-27T11:37:05;100985.66;;;22.20;42.22
9415;BME280;4746;35.664;139.738;2023-04-27T11:39:37;100992.81;;;22.13;42.54
9415;BME280;4746;35.664;139.738;2023-04-27T11:45:01;100995.38;;;22.15;42.58
9415;BME280;4746;35.664;139.738;2023-04-27T11:47:36;101003.25;;;22.12;42.94
9415;BME280;4746;35.664;139.738;2023-04-27T11:50:34;101007.75;;;22.07;43.16
9415;BME280;4746;35.664;139.738;2023-04-27T11:53:01;101008.63;;;22.07;43.27
9415;BME280;4746;35.664;139.738;2023-04-27T11:55:29;101025.19;;;22.06;43.35
9415;BME280;4746;35.664;139.738;2023-04-27T11:57:59;101028.63;;;22.08;43.38
9415;BME280;4746;35.664;139.738;2023-04-27T12:00:27;101013.03;;;22.05;43.77
9415;BME280;4746;35.664;139.738;2023-04-27T12:02:55;101005.28;;;22.02;43.81
9415;BME280;4746;35.664;139.738;2023-04-27T12:05:24;101023.47;;;22.05;43.96
9415;BME280;4746;35.664;139.738;2023-04-27T12:07:52;101031.31;;;22.05;43.41
9415;BME280;4746;35.664;139.738;2023-04-27T12:10:19;101028.69;;;22.05;44.04
9415;BME280;4746;35.664;139.738;2023-04-27T12:12:47;101021.84;;;22.01;44.10
9415;BME280;4746;35.664;139.738;2023-04-27T12:15:14;101013.13;;;22.02;44.12
9415;BME280;4746;35.664;139.738;2023-04-27T12:17:42;101026.25;;;21.99;44.04
9415;BME280;4746;35.664;139.738;2023-04-27T12:20:10;101033.19;;;22.00;44.55
9415;BME280;4746;35.664;139.738;2023-04-27T12:22:39;101034.00;;;22.02;44.26
9415;BME280;4746;35.664;139.738;2023-04-27T12:25:07;101011.34;;;22.03;44.46
9415;BME280;4746;35.664;139.738;2023-04-27T12:27:35;101029.69;;;22.01;44.51
9415;BME280;4746;35.664;139.738;2023-04-27T12:30:03;101025.34;;;22.00;44.45
9415;BME280;4746;35.664;139.738;2023-04-27T12:32:31;101012.31;;;22.00;44.33
9415;BME280;4746;35.664;139.738;2023-04-27T12:34:58;101019.34;;;21.97;44.18
9415;BME280;4746;35.664;139.738;2023-04-27T12:37:25;101022.84;;;21.96;44.43
9415;BME280;4746;35.664;139.738;2023-04-27T12:39:53;101029.84;;;21.95;44.48
9415;BME280;4746;35.664;139.738;2023-04-27T12:42:23;101035.28;;;21.86;44.82
9415;BME280;4746;35.664;139.738;2023-04-27T12:45:00;101028.84;;;21.99;44.15
9415;BME280;4746;35.664;139.738;2023-04-27T12:47:37;101047.94;;;22.01;44.16
9415;BME280;4746;35.664;139.738;2023-04-27T12:50:06;101018.56;;;21.93;44.46
9415;BME280;4746;35.664;139.738;2023-04-27T12:52:35;101042.09;;;21.92;44.42
9415;BME280;4746;35.664;139.738;2023-04-27T12:55:03;101028.13;;;21.94;44.80
9415;BME280;4746;35.664;139.738;2023-04-27T12:57:31;101048.06;;;21.97;44.76
9415;BME280;4746;35.664;139.738;2023-04-27T12:59:59;101048.16;;;21.94;44.58
9415;BME280;4746;35.664;139.738;2023-04-27T13:02:27;101049.06;;;21.93;44.91